Time;durP1;ratioP1;P1;durP2;ratioP2;P2;SDS_P1;SDS_P2;PMS_P1;PMS_P2;Temp;Humidity;BMP_temperature;BMP_pressure;BME280_temperature;BME280_humidity;BME280_pressure;Samples;Min_cycle;Max_cycle;Signal;HPM_P1;HPM_P2
2024/01/30 00:02:21;;;;;;;4.85;1.15;;;7.40;99.90;;;;;;5068280;28;20167;-53
2024/01/30 00:04:47;;;;;;;6.75;1.45;;;7.40;99.90;;;;;;5068416;28;20033;-54
2024/01/30 00:07:12;;;;;;;9.52;1.52;;;7.50;99.90;;;;;;5068331;28;20053;-54
2024/01/30 00:09:39;;;;;;;3.65;1.10;;;7.40;99.90;;;;;;5067867;28;20029;-54
2024/01/30 00:12:06;;;;;;;5.82;1.00;;;7.50;99.90;;;;;;5068341;28;20032;-52
2024/01/30 00:14:31;;;;;;;5.55;1.17;;;7.50;99.90;;;;;;5068108;28;20024;-53
2024/01/30 00:16:57;;;;;;;9.18;1.15;;;7.50;99.90;;;;;;5067447;28;20311;-53
2024/01/30 00:19:23;;;;;;;2.85;0.93;;;7.50;99.90;;;;;;5067443;28;20048;-54
2024/01/30 00:21:48;;;;;;;3.95;1.20;;;7.40;99.90;;;;;;5066945;28;20092;-54
2024/01/30 00:24:14;;;;;;;5.15;1.15;;;7.40;99.90;;;;;;5066873;28;20287;-53
2024/01/30 00:26:40;;;;;;;5.63;1.33;;;7.40;99.90;;;;;;5067999;28;20017;-54
2024/01/30 00:29:05;;;;;;;4.05;1.00;;;7.40;99.90;;;;;;5067884;28;20052;-54
2024/01/30 00:31:31;;;;;;;7.20;1.20;;;7.40;99.90;;;;;;5067641;28;20021;-54
2024/01/30 00:33:57;;;;;;;4.63;0.93;;;7.40;99.90;;;;;;5067689;28;20214;-54
2024/01/30 00:36:22;;;;;;;3.65;1.00;;;7.50;99.90;;;;;;5067646;28;20029;-54
2024/01/30 00:38:48;;;;;;;2.25;1.20;;;7.50;99.90;;;;;;5067795;28;20173;-54
2024/01/30 00:41:14;;;;;;;6.03;1.10;;;7.40;99.90;;;;;;5066707;28;20052;-54
2024/01/30 00:43:40;;;;;;;3.40;1.10;;;7.40;99.90;;;;;;5050333;28;20171;-53
2024/01/30 00:46:05;;;;;;;5.32;1.10;;;7.40;99.90;;;;;;5067434;28;20048;-55
2024/01/30 00:48:31;;;;;;;6.82;1.10;;;7.40;99.90;;;;;;5066247;28;20318;-52
2024/01/30 00:50:56;;;;;;;6.03;1.40;;;7.50;99.90;;;;;;5067500;28;20029;-54
2024/01/30 00:53:22;;;;;;;6.07;1.42;;;7.40;99.90;;;;;;5067353;28;20081;-54
2024/01/30 00:55:48;;;;;;;1.27;0.70;;;7.40;99.90;;;;;;5067627;28;20052;-54
2024/01/30 00:58:13;;;;;;;3.00;1.00;;;7.40;99.90;;;;;;5065652;28;20028;-54
2024/01/30 01:00:39;;;;;;;4.55;0.93;;;7.40;99.90;;;;;;5067393;28;20295;-54
2024/01/30 01:03:05;;;;;;;4.63;1.27;;;7.40;99.90;;;;;;5067320;28;20044;-53
2024/01/30 01:05:30;;;;;;;3.05;1.02;;;7.50;99.90;;;;;;5067159;28;20036;-54
2024/01/30 01:07:56;;;;;;;3.92;0.77;;;7.50;99.90;;;;;;5067099;28;20080;-51
2024/01/30 01:10:22;;;;;;;3.40;1.08;;;7.50;99.90;;;;;;5067081;28;20024;-51
2024/01/30 01:12:48;;;;;;;4.10;1.00;;;7.50;99.90;;;;;;5067148;28;20033;-54
2024/01/30 01:15:14;;;;;;;1.95;1.08;;;7.50;99.90;;;;;;5067097;28;20051;-54
2024/01/30 01:17:40;;;;;;;3.35;1.10;;;7.50;99.90;;;;;;5065707;28;20303;-54
2024/01/30 01:20:06;;;;;;;4.65;1.05;;;7.50;99.90;;;;;;5065777;28;20231;-54
2024/01/30 01:22:32;;;;;;;4.50;0.90;;;7.50;99.90;;;;;;5066419;28;20063;-51
2024/01/30 01:25:00;;;;;;;2.83;0.80;;;7.50;99.90;;;;;;5065934;28;20033;-52
2024/01/30 01:27:26;;;;;;;2.88;1.05;;;7.50;99.90;;;;;;5066755;28;20032;-54
2024/01/30 01:29:52;;;;;;;3.80;0.90;;;7.50;99.90;;;;;;5066846;28;20025;-55
2024/01/30 01:32:18;;;;;;;2.42;0.80;;;7.50;99.90;;;;;;5066643;28;20291;-55
2024/01/30 01:34:43;;;;;;;2.45;0.77;;;7.50;99.90;;;;;;5066858;28;20100;-52
2024/01/30 01:37:09;;;;;;;2.03;0.70;;;7.50;99.90;;;;;;5065415;28;20299;-54
2024/01/30 01:39:35;;;;;;;1.38;0.63;;;7.40;99.90;;;;;;5066557;28;20029;-51
2024/01/30 01:42:00;;;;;;;2.38;0.73;;;7.40;99.90;;;;;;5066337;28;20037;-53
2024/01/30 01:44:27;;;;;;;1.33;0.60;;;7.40;99.90;;;;;;5066401;28;20033;-53
2024/01/30 01:46:52;;;;;;;2.17;0.70;;;7.40;99.90;;;;;;5066474;28;20035;-51
2024/01/30 01:49:19;;;;;;;0.88;0.60;;;7.40;99.90;;;;;;5065989;28;20242;-55
2024/01/30 01:51:44;;;;;;;4.05;0.70;;;7.40;99.90;;;;;;5065274;28;20082;-54
2024/01/30 01:54:10;;;;;;;6.25;0.90;;;7.40;99.90;;;;;;5065298;28;20190;-54
2024/01/30 01:56:36;;;;;;;5.32;1.05;;;7.50;99.90;;;;;;5048736;28;20083;-54
2024/01/30 01:59:07;;;;;;;4.25;2.17;;;7.50;99.90;;;;;;5048738;28;20025;-55
2024/01/30 02:01:33;;;;;;;2.42;0.80;;;7.50;99.90;;;;;;5066171;28;20283;-53
2024/01/30 02:04:00;;;;;;;1.42;0.70;;;7.40;99.90;;;;;;5065098;28;20422;-55
2024/01/30 02:06:26;;;;;;;3.00;0.70;;;7.50;99.90;;;;;;5065643;28;20309;-53
2024/01/30 02:08:51;;;;;;;2.28;0.73;;;7.40;99.90;;;;;;5064072;28;20028;-54
2024/01/30 02:11:18;;;;;;;2.58;0.80;;;7.40;99.90;;;;;;5066035;28;20082;-49
2024/01/30 02:13:43;;;;;;;5.35;1.10;;;7.50;99.90;;;;;;5048540;28;20024;-46
2024/01/30 02:16:10;;;;;;;5.10;0.80;;;7.50;99.90;;;;;;5065526;28;20192;-48
2024/01/30 02:18:41;;;;;;;3.00;0.70;;;7.50;99.90;;;;;;5065837;28;20306;-47
2024/01/30 02:21:07;;;;;;;0.70;0.57;;;7.50;99.90;;;;;;5064835;28;20094;-48
2024/01/30 02:23:33;;;;;;;2.58;0.60;;;7.50;99.90;;;;;;5065817;28;20033;-50
2024/01/30 02:25:59;;;;;;;3.42;1.05;;;7.40;99.90;;;;;;5064731;28;20048;-50
2024/01/30 02:28:24;;;;;;;3.30;0.60;;;7.50;99.90;;;;;;5065701;28;20080;-50
2024/01/30 02:30:50;;;;;;;3.40;1.02;;;7.50;99.90;;;;;;5065847;28;20033;-47
2024/01/30 02:33:16;;;;;;;5.45;1.00;;;7.50;99.90;;;;;;5065780;28;20029;-50
2024/01/30 02:35:41;;;;;;;1.70;0.73;;;7.50;99.90;;;;;;5064486;28;20032;-47
2024/01/30 02:38:07;;;;;;;3.55;0.90;;;7.50;99.90;;;;;;5065545;28;20025;-50
2024/01/30 02:40:33;;;;;;;2.75;0.70;;;7.60;99.90;;;;;;5065198;28;20032;-49
2024/01/30 02:42:59;;;;;;;7.15;1.17;;;7.50;99.90;;;;;;5065066;28;20029;-47
2024/01/30 02:45:25;;;;;;;3.25;0.80;;;7.50;99.90;;;;;;5065558;28;20183;-50
2024/01/30 02:47:51;;;;;;;5.07;1.42;;;7.50;99.90;;;;;;5065492;28;20029;-49
2024/01/30 02:50:16;;;;;;;4.68;1.30;;;7.50;99.90;;;;;;5065545;28;20084;-50
2024/01/30 02:52:45;;;;;;;2.70;0.93;;;7.50;99.90;;;;;;5065642;28;20036;-47
2024/01/30 02:55:11;;;;;;;2.90;1.02;;;7.50;99.90;;;;;;5065489;28;20037;-49
2024/01/30 02:57:37;;;;;;;4.05;1.00;;;7.60;99.90;;;;;;5065248;28;20021;-47
2024/01/30 03:00:05;;;;;;;4.85;1.05;;;7.50;99.90;;;;;;5065360;28;20029;-46
2024/01/30 03:02:31;;;;;;;5.70;0.90;;;7.50;99.90;;;;;;5065444;28;20243;-46
2024/01/30 03:04:57;;;;;;;1.45;0.80;;;7.60;99.90;;;;;;5065453;28;20080;-47
2024/01/30 03:07:22;;;;;;;3.17;0.93;;;7.60;99.90;;;;;;5065339;28;20033;-47
2024/01/30 03:09:48;;;;;;;3.72;1.50;;;7.60;99.90;;;;;;5065042;28;20045;-49
2024/01/30 03:12:14;;;;;;;3.53;0.90;;;7.60;99.90;;;;;;5065254;28;20088;-49
2024/01/30 03:14:39;;;;;;;5.47;1.05;;;7.50;99.90;;;;;;5065484;28;20319;-49
2024/01/30 03:17:05;;;;;;;3.40;0.90;;;7.60;99.90;;;;;;5064378;28;20041;-47
2024/01/30 03:19:31;;;;;;;7.43;1.23;;;7.60;99.90;;;;;;5064989;28;20074;-49
2024/01/30 03:21:56;;;;;;;2.17;0.80;;;7.60;99.90;;;;;;5068654;28;20020;-50
2024/01/30 03:24:22;;;;;;;3.55;1.60;;;7.60;99.90;;;;;;5068992;28;20099;-48
2024/01/30 03:26:47;;;;;;;5.70;1.10;;;7.60;99.90;;;;;;5069120;28;20163;-50
2024/01/30 03:29:13;;;;;;;2.08;0.70;;;7.60;99.90;;;;;;5068031;28;20044;-50
2024/01/30 03:31:39;;;;;;;6.25;1.00;;;7.60;99.90;;;;;;5068725;28;20036;-49
2024/01/30 03:34:05;;;;;;;4.57;1.00;;;7.60;99.90;;;;;;5068739;28;20021;-49
2024/01/30 03:36:32;;;;;;;8.85;1.60;;;7.60;99.90;;;;;;5068928;28;20033;-50
2024/01/30 03:38:58;;;;;;;6.00;1.40;;;7.60;99.90;;;;;;5067909;28;20064;-49
2024/01/30 03:41:24;;;;;;;3.95;1.00;;;7.60;99.90;;;;;;5068589;28;20257;-50
2024/01/30 03:43:50;;;;;;;3.90;1.10;;;7.60;99.90;;;;;;5067670;28;20032;-48
2024/01/30 03:46:15;;;;;;;6.07;1.33;;;7.60;99.90;;;;;;5068837;28;20037;-48
2024/01/30 03:48:41;;;;;;;2.00;0.90;;;7.50;99.90;;;;;;5067621;28;20183;-47
2024/01/30 03:51:07;;;;;;;2.50;0.98;;;7.60;99.90;;;;;;5068658;28;20079;-47
2024/01/30 03:53:32;;;;;;;2.30;0.98;;;7.50;99.90;;;;;;5068271;28;20029;-47
2024/01/30 03:55:58;;;;;;;2.08;0.90;;;7.60;99.90;;;;;;5068499;28;20277;-50
2024/01/30 03:58:24;;;;;;;2.55;1.00;;;7.60;99.90;;;;;;5068041;28;20241;-49
2024/01/30 04:00:49;;;;;;;4.32;0.93;;;7.60;99.90;;;;;;5068024;28;20060;-50
2024/01/30 04:03:15;;;;;;;3.72;0.90;;;7.60;99.90;;;;;;5068472;28;20028;-50
2024/01/30 04:05:41;;;;;;;4.40;1.00;;;7.60;99.90;;;;;;5068518;28;20033;-49
2024/01/30 04:08:07;;;;;;;2.17;0.85;;;7.60;99.90;;;;;;5068068;28;20047;-49
2024/01/30 04:10:33;;;;;;;4.22;1.10;;;7.60;99.90;;;;;;5067290;28;20048;-47
2024/01/30 04:12:59;;;;;;;4.75;1.45;;;7.60;99.90;;;;;;5068176;28;20048;-50
2024/01/30 04:15:25;;;;;;;3.60;0.90;;;7.60;99.90;;;;;;5068295;28;20028;-51
2024/01/30 04:17:51;;;;;;;3.83;0.98;;;7.60;99.90;;;;;;5067826;28;20056;-50
2024/01/30 04:20:17;;;;;;;8.15;1.40;;;7.60;99.90;;;;;;5067975;28;20183;-50
2024/01/30 04:22:45;;;;;;;2.08;1.20;;;7.60;99.90;;;;;;5068021;28;20024;-50
2024/01/30 04:25:12;;;;;;;5.22;1.10;;;7.60;99.90;;;;;;5068037;28;20025;-50
2024/01/30 04:27:37;;;;;;;5.20;1.52;;;7.60;99.90;;;;;;5068111;28;20052;-48
2024/01/30 04:30:03;;;;;;;4.50;1.10;;;7.70;99.90;;;;;;5067940;28;20218;-47
2024/01/30 04:32:29;;;;;;;5.13;1.20;;;7.70;99.90;;;;;;5066457;28;20191;-49
2024/01/30 04:34:55;;;;;;;5.35;1.33;;;7.60;99.90;;;;;;5067888;28;20068;-47
2024/01/30 04:37:20;;;;;;;4.25;0.90;;;7.60;99.90;;;;;;5067413;28;20024;-47
2024/01/30 04:39:46;;;;;;;3.47;0.98;;;7.60;99.90;;;;;;5067473;28;20309;-46
2024/01/30 04:42:12;;;;;;;5.72;0.95;;;7.60;99.90;;;;;;5067691;28;20064;-48
2024/01/30 04:44:37;;;;;;;2.70;0.80;;;7.60;99.90;;;;;;5067654;28;20040;-47
2024/01/30 04:47:05;;;;;;;4.43;1.10;;;7.60;99.90;;;;;;5066392;28;20035;-46
2024/01/30 04:49:30;;;;;;;2.58;0.70;;;7.60;99.90;;;;;;5067436;28;20025;-47
2024/01/30 04:51:56;;;;;;;7.38;1.35;;;7.60;99.90;;;;;;5067413;28;20040;-47
2024/01/30 04:54:22;;;;;;;3.72;0.98;;;7.60;99.90;;;;;;5067461;28;20024;-47
2024/01/30 04:56:47;;;;;;;6.13;0.95;;;7.60;99.90;;;;;;5066394;28;20043;-47
2024/01/30 04:59:13;;;;;;;3.78;1.00;;;7.60;99.90;;;;;;5067393;28;20055;-46
2024/01/30 05:01:39;;;;;;;4.18;1.20;;;7.60;99.90;;;;;;5066130;28;20057;-47
2024/01/30 05:04:07;;;;;;;4.38;1.00;;;7.60;99.90;;;;;;5067263;28;20036;-47
2024/01/30 05:06:32;;;;;;;4.57;1.10;;;7.60;99.90;;;;;;5066349;28;20100;-47
2024/01/30 05:08:58;;;;;;;3.42;0.90;;;7.60;99.90;;;;;;5067167;28;20047;-47
2024/01/30 05:11:24;;;;;;;4.15;0.93;;;7.60;99.90;;;;;;5067185;28;20298;-48
2024/01/30 05:13:49;;;;;;;4.72;1.00;;;7.50;99.90;;;;;;5066873;28;20067;-47
2024/01/30 05:16:15;;;;;;;3.38;1.10;;;7.60;99.90;;;;;;5066627;28;20064;-47
2024/01/30 05:18:40;;;;;;;5.65;1.10;;;7.60;99.90;;;;;;5066509;28;20099;-47
2024/01/30 05:21:06;;;;;;;5.32;1.10;;;7.60;99.90;;;;;;5066957;28;20029;-47
2024/01/30 05:23:32;;;;;;;4.65;0.80;;;7.60;99.90;;;;;;5066571;28;20029;-46
2024/01/30 05:26:00;;;;;;;2.75;1.08;;;7.50;99.90;;;;;;5066626;28;20032;-47
2024/01/30 05:28:26;;;;;;;2.50;0.80;;;7.50;99.90;;;;;;5066852;28;20037;-47
2024/01/30 05:30:52;;;;;;;4.57;1.20;;;7.50;99.90;;;;;;5066880;28;20305;-46
2024/01/30 05:33:17;;;;;;;2.25;0.93;;;7.50;99.90;;;;;;5066230;28;20203;-47
2024/01/30 05:35:43;;;;;;;4.18;1.17;;;7.50;99.90;;;;;;5066375;28;20135;-46
2024/01/30 05:38:09;;;;;;;5.05;1.10;;;7.60;99.90;;;;;;5066491;28;20227;-47
2024/01/30 05:40:34;;;;;;;4.15;0.90;;;7.60;99.90;;;;;;5066431;28;20037;-47
2024/01/30 05:43:02;;;;;;;4.88;0.80;;;7.60;99.90;;;;;;5065314;28;20044;-48
2024/01/30 05:45:28;;;;;;;2.80;0.80;;;7.60;99.90;;;;;;5066629;28;20029;-47
2024/01/30 05:47:54;;;;;;;3.92;1.10;;;7.60;99.90;;;;;;5066432;28;20191;-47
2024/01/30 05:50:20;;;;;;;3.53;0.90;;;7.60;99.90;;;;;;5065793;28;20295;-47
2024/01/30 05:52:45;;;;;;;3.72;1.33;;;7.60;99.90;;;;;;5065350;28;20078;-47
2024/01/30 05:55:12;;;;;;;3.42;1.05;;;7.60;99.90;;;;;;5065285;28;20083;-47
2024/01/30 05:57:38;;;;;;;3.03;1.25;;;7.60;99.90;;;;;;5065526;28;20031;-48
2024/01/30 06:00:05;;;;;;;1.70;0.85;;;7.70;99.90;;;;;;5066165;28;20052;-45
2024/01/30 06:02:31;;;;;;;4.63;0.93;;;7.70;99.90;;;;;;5066106;28;20039;-50
2024/01/30 06:04:56;;;;;;;5.88;1.52;;;7.70;99.90;;;;;;5066116;28;20060;-47
2024/01/30 06:07:22;;;;;;;3.60;0.80;;;7.70;99.90;;;;;;5065714;28;20144;-48
2024/01/30 06:09:48;;;;;;;3.55;1.10;;;7.70;99.90;;;;;;5065896;28;20036;-48
2024/01/30 06:12:13;;;;;;;1.95;0.70;;;7.70;99.90;;;;;;5064865;28;20090;-50
2024/01/30 06:14:39;;;;;;;3.15;0.70;;;7.70;99.90;;;;;;5065905;28;20047;-46
2024/01/30 06:17:05;;;;;;;3.72;0.90;;;7.70;99.90;;;;;;5064575;28;20098;-46
2024/01/30 06:19:31;;;;;;;2.58;0.90;;;7.70;99.90;;;;;;5065445;28;20032;-48
2024/01/30 06:21:57;;;;;;;3.75;1.27;;;7.70;99.90;;;;;;5065342;28;20021;-47
2024/01/30 06:24:22;;;;;;;3.35;1.00;;;7.70;99.90;;;;;;5065333;28;20265;-49
2024/01/30 06:26:48;;;;;;;4.13;0.98;;;7.80;99.90;;;;;;5065774;28;20094;-47
2024/01/30 06:29:14;;;;;;;3.38;0.90;;;7.80;99.90;;;;;;5065689;28;20025;-46
2024/01/30 06:31:41;;;;;;;4.47;0.90;;;7.70;99.90;;;;;;5064781;28;20092;-47
2024/01/30 06:34:07;;;;;;;2.42;1.00;;;7.70;99.90;;;;;;5065651;28;20032;-47
2024/01/30 06:36:33;;;;;;;4.07;0.93;;;7.70;99.90;;;;;;5065706;28;20107;-46
2024/01/30 06:38:59;;;;;;;4.20;1.52;;;7.80;99.90;;;;;;5065624;28;20051;-47
2024/01/30 06:41:24;;;;;;;3.85;1.10;;;7.80;99.90;;;;;;5065468;28;20090;-47
2024/01/30 06:43:50;;;;;;;5.93;1.48;;;7.80;99.90;;;;;;5065338;28;20187;-46
2024/01/30 06:46:16;;;;;;;3.03;1.35;;;7.80;99.90;;;;;;5065457;28;20275;-47
2024/01/30 06:48:44;;;;;;;4.07;1.50;;;7.70;99.90;;;;;;5065200;28;20032;-50
2024/01/30 06:51:10;;;;;;;5.13;1.70;;;7.70;99.90;;;;;;5064459;28;20017;-48
2024/01/30 06:53:36;;;;;;;4.72;1.30;;;7.70;99.90;;;;;;5064440;28;20025;-47
2024/01/30 06:56:02;;;;;;;8.18;1.80;;;7.70;99.90;;;;;;5067359;28;20225;-50
2024/01/30 06:58:28;;;;;;;8.02;1.75;;;7.70;99.90;;;;;;5069555;28;20044;-47
2024/01/30 07:00:54;;;;;;;7.43;1.90;;;7.70;99.90;;;;;;5069671;28;20028;-47
2024/01/30 07:03:19;;;;;;;10.18;2.05;;;7.70;99.90;;;;;;5068546;28;20068;-47
2024/01/30 07:05:45;;;;;;;7.90;1.85;;;7.70;99.90;;;;;;5069173;28;20095;-48
2024/01/30 07:08:11;;;;;;;6.25;2.20;;;7.70;99.90;;;;;;5069274;28;20035;-48
2024/01/30 07:10:36;;;;;;;6.55;1.83;;;7.60;99.90;;;;;;5069376;28;20068;-46
2024/01/30 07:13:04;;;;;;;4.22;1.58;;;7.50;99.90;;;;;;5069312;28;20032;-47
2024/01/30 07:15:29;;;;;;;6.63;1.58;;;7.40;99.90;;;;;;5069074;28;20217;-47
2024/01/30 07:17:55;;;;;;;6.95;1.80;;;7.30;99.90;;;;;;5069027;28;20036;-47
2024/01/30 07:20:21;;;;;;;4.15;1.60;;;7.30;99.90;;;;;;5069046;28;20029;-47
2024/01/30 07:22:47;;;;;;;6.18;1.73;;;7.20;99.90;;;;;;5069232;28;20175;-47
2024/01/30 07:25:13;;;;;;;6.07;1.98;;;7.10;99.90;;;;;;5068611;28;20251;-47
2024/01/30 07:27:38;;;;;;;5.82;1.80;;;7.00;99.90;;;;;;5068985;28;20020;-48
2024/01/30 07:30:05;;;;;;;7.88;1.73;;;7.00;99.90;;;;;;5068776;28;20308;-48
2024/01/30 07:32:31;;;;;;;7.28;2.55;;;7.00;99.90;;;;;;5068810;28;20068;-50
2024/01/30 07:34:57;;;;;;;6.97;1.90;;;6.90;99.90;;;;;;5068932;28;20029;-49
2024/01/30 07:37:22;;;;;;;8.25;2.00;;;6.90;99.90;;;;;;5067870;28;20056;-49
2024/01/30 07:39:48;;;;;;;5.38;1.80;;;6.90;99.90;;;;;;5068528;28;20024;-47
2024/01/30 07:42:14;;;;;;;6.45;4.03;;;6.90;99.90;;;;;;5068480;28;20099;-49
2024/01/30 07:44:39;;;;;;;11.25;5.45;;;7.00;99.90;;;;;;5068738;28;20033;-47
2024/01/30 07:47:05;;;;;;;7.50;2.75;;;7.10;99.90;;;;;;5067358;28;20045;-49
2024/01/30 07:49:34;;;;;;;7.10;2.15;;;7.10;99.90;;;;;;5067491;28;20096;-49
2024/01/30 07:52:00;;;;;;;6.88;3.03;;;7.20;99.90;;;;;;5067392;28;20032;-47
2024/01/30 07:54:25;;;;;;;7.22;2.45;;;7.20;99.90;;;;;;5067363;28;20092;-47
2024/01/30 07:56:51;;;;;;;9.25;2.58;;;7.30;99.90;;;;;;5067976;28;20021;-47
2024/01/30 07:59:18;;;;;;;6.05;2.20;;;7.30;99.90;;;;;;5068480;28;20837;-50
2024/01/30 08:01:44;;;;;;;9.13;2.17;;;7.30;99.90;;;;;;5067950;28;20291;-50
2024/01/30 08:04:09;;;;;;;7.93;2.40;;;7.30;99.90;;;;;;5068494;28;20059;-48
2024/01/30 08:06:35;;;;;;;7.50;3.05;;;7.30;99.90;;;;;;5067195;28;20033;-51
2024/01/30 08:09:01;;;;;;;10.18;3.58;;;7.30;99.90;;;;;;5068015;28;20094;-48
2024/01/30 08:11:28;;;;;;;8.23;2.78;;;7.40;99.90;;;;;;5067984;28;20021;-50
2024/01/30 08:13:54;;;;;;;5.70;2.33;;;7.40;99.90;;;;;;5067866;28;20279;-50
2024/01/30 08:16:19;;;;;;;8.60;2.22;;;7.50;99.90;;;;;;5067547;28;20053;-46
2024/01/30 08:18:45;;;;;;;8.90;2.00;;;7.40;99.90;;;;;;5068033;28;20053;-47
2024/01/30 08:21:11;;;;;;;7.65;1.67;;;7.50;99.90;;;;;;5068002;28;20177;-50
2024/01/30 08:23:39;;;;;;;12.52;2.50;;;7.40;99.90;;;;;;5067663;28;20037;-50
2024/01/30 08:26:05;;;;;;;6.43;1.90;;;7.40;99.90;;;;;;5067745;28;20286;-47
2024/01/30 08:28:30;;;;;;;11.55;3.30;;;7.40;99.90;;;;;;5067162;28;20044;-48
2024/01/30 08:30:56;;;;;;;6.57;2.97;;;7.50;99.90;;;;;;5067558;28;20075;-47
2024/01/30 08:33:21;;;;;;;11.55;2.50;;;7.50;99.90;;;;;;5067159;28;20088;-48
2024/01/30 08:35:47;;;;;;;12.50;2.10;;;7.50;99.90;;;;;;5066362;28;20033;-47
2024/01/30 08:38:13;;;;;;;11.05;2.65;;;7.50;99.90;;;;;;5067225;28;20039;-47
2024/01/30 08:40:38;;;;;;;8.20;2.10;;;7.60;99.90;;;;;;5067310;28;20047;-48
2024/01/30 08:43:04;;;;;;;14.05;2.15;;;7.60;99.90;;;;;;5066304;28;20354;-50
2024/01/30 08:45:30;;;;;;;11.88;1.83;;;7.60;99.90;;;;;;5067378;28;20044;-49
2024/01/30 08:47:56;;;;;;;11.07;1.98;;;7.60;99.90;;;;;;5067124;28;20048;-47
2024/01/30 08:50:22;;;;;;;7.97;2.20;;;7.60;99.90;;;;;;5067357;28;20021;-47
2024/01/30 08:52:48;;;;;;;10.95;2.30;;;7.70;99.90;;;;;;5067371;28;20036;-47
2024/01/30 08:55:13;;;;;;;14.77;2.78;;;7.70;99.90;;;;;;5067371;28;20024;-47
2024/01/30 08:57:39;;;;;;;8.35;1.70;;;7.70;99.90;;;;;;5066932;28;20025;-48
2024/01/30 09:00:06;;;;;;;7.18;1.70;;;7.80;99.90;;;;;;5049276;28;20041;-47
2024/01/30 09:02:33;;;;;;;9.07;2.10;;;7.80;99.90;;;;;;5067083;28;20268;-47
2024/01/30 09:04:58;;;;;;;10.50;2.17;;;7.70;99.90;;;;;;5065953;28;20048;-47
2024/01/30 09:07:24;;;;;;;9.52;2.03;;;7.80;99.90;;;;;;5067066;28;20029;-47
2024/01/30 09:09:49;;;;;;;6.40;1.45;;;7.80;99.90;;;;;;5067045;28;20180;-49
2024/01/30 09:12:15;;;;;;;10.73;2.05;;;7.80;99.90;;;;;;5066758;28;20088;-47
2024/01/30 09:14:41;;;;;;;7.75;1.38;;;7.90;99.90;;;;;;5066871;28;20291;-47
2024/01/30 09:17:07;;;;;;;11.18;1.90;;;7.80;99.90;;;;;;5066460;28;20068;-49
2024/01/30 09:19:33;;;;;;;8.02;1.70;;;7.80;99.90;;;;;;5066244;28;20187;-50
2024/01/30 09:21:59;;;;;;;13.50;2.55;;;7.80;99.90;;;;;;5066523;28;20029;-50
2024/01/30 09:24:26;;;;;;;9.82;2.10;;;7.80;99.90;;;;;;5066438;28;20096;-47
2024/01/30 09:26:51;;;;;;;8.48;1.60;;;7.70;99.90;;;;;;5065763;28;20036;-47
2024/01/30 09:29:17;;;;;;;16.42;2.72;;;7.60;99.90;;;;;;5066385;28;20037;-50
2024/01/30 09:31:46;;;;;;;10.60;2.50;;;7.50;99.90;;;;;;5066582;28;20036;-49
2024/01/30 09:34:12;;;;;;;13.85;2.58;;;7.50;99.90;;;;;;5066470;28;20021;-50
2024/01/30 09:36:37;;;;;;;12.93;2.63;;;7.50;99.90;;;;;;5067016;28;20078;-50
2024/01/30 09:39:04;;;;;;;14.63;2.17;;;7.50;99.90;;;;;;5066402;28;20049;-49
2024/01/30 09:41:30;;;;;;;12.00;1.80;;;7.40;99.90;;;;;;5066246;28;20040;-49
2024/01/30 09:43:56;;;;;;;9.70;1.88;;;7.40;99.90;;;;;;5065302;28;20025;-50
2024/01/30 09:46:22;;;;;;;14.85;2.53;;;7.50;99.90;;;;;;5048342;28;20106;-49
2024/01/30 09:48:48;;;;;;;13.50;2.72;;;8.30;99.90;;;;;;5048299;28;20041;-49
2024/01/30 09:51:14;;;;;;;8.63;1.65;;;9.80;99.90;;;;;;5064949;28;20084;-48
2024/01/30 09:53:41;;;;;;;6.35;1.60;;;11.10;99.90;;;;;;5065952;28;20032;-46
2024/01/30 09:56:07;;;;;;;5.55;1.45;;;12.00;99.90;;;;;;5064754;28;20075;-49
2024/01/30 09:58:33;;;;;;;10.98;1.52;;;13.00;99.90;;;;;;5048180;28;20043;-50
2024/01/30 10:00:59;;;;;;;6.13;1.63;;;13.50;99.90;;;;;;5065819;28;20060;-48
2024/01/30 10:03:25;;;;;;;8.13;2.28;;;13.90;99.90;;;;;;5065640;28;20032;-49
2024/01/30 10:05:54;;;;;;;8.00;1.65;;;14.70;99.90;;;;;;5031766;28;20060;-50
2024/01/30 10:08:19;;;;;;;6.50;1.30;;;15.20;99.90;;;;;;5065781;28;20094;-51
2024/01/30 10:10:49;;;;;;;4.72;1.13;;;15.10;99.90;;;;;;5064697;28;20021;-50
2024/01/30 10:13:15;;;;;;;8.63;1.30;;;14.50;99.90;;;;;;5065837;28;20178;-51
2024/01/30 10:15:41;;;;;;;5.60;1.27;;;12.90;99.90;;;;;;5065409;28;20039;-51
2024/01/30 10:18:08;;;;;;;4.25;1.15;;;11.80;99.90;;;;;;5065585;28;20290;-50
2024/01/30 10:20:34;;;;;;;7.88;1.80;;;10.90;99.90;;;;;;5065479;28;20304;-50
2024/01/30 10:22:59;;;;;;;6.60;1.45;;;10.30;99.90;;;;;;5065283;28;20028;-50
2024/01/30 10:25:26;;;;;;;7.03;1.52;;;9.90;99.90;;;;;;5064523;28;20039;-50
2024/01/30 10:27:58;;;;;;;9.63;1.50;;;9.60;99.90;;;;;;5065588;28;20174;-50
2024/01/30 10:30:24;;;;;;;4.43;1.20;;;9.40;99.90;;;;;;5064532;28;20024;-50
2024/01/30 10:32:49;;;;;;;6.45;1.52;;;9.30;99.90;;;;;;5065491;28;20025;-50
2024/01/30 10:35:15;;;;;;;6.60;1.20;;;9.10;99.90;;;;;;5064195;28;20295;-49
2024/01/30 10:37:43;;;;;;;5.28;1.48;;;9.00;99.90;;;;;;5065192;28;20052;-49
2024/01/30 10:40:09;;;;;;;4.43;1.88;;;9.00;99.90;;;;;;5065698;28;20167;-50
2024/01/30 10:42:37;;;;;;;4.30;1.20;;;8.90;99.90;;;;;;5064410;28;20233;-49
2024/01/30 10:45:08;;;;;;;7.85;3.58;;;8.90;99.90;;;;;;5065308;28;20039;-50
2024/01/30 10:47:34;;;;;;;6.55;1.60;;;9.00;99.90;;;;;;5064873;28;20029;-50
2024/01/30 10:50:00;;;;;;;7.30;1.58;;;9.10;99.90;;;;;;5047382;28;20036;-50
2024/01/30 10:52:26;;;;;;;6.95;1.27;;;9.10;99.90;;;;;;5047791;28;20088;-49
2024/01/30 10:54:52;;;;;;;6.35;2.80;;;9.10;99.90;;;;;;5065203;28;20024;-49
2024/01/30 10:57:18;;;;;;;9.57;1.30;;;9.10;99.90;;;;;;5064788;28;20263;-48
2024/01/30 10:59:43;;;;;;;9.85;1.77;;;9.20;99.90;;;;;;5063931;28;20066;-49
2024/01/30 11:02:09;;;;;;;6.53;2.10;;;9.20;99.90;;;;;;5064796;28;20033;-49
2024/01/30 11:04:40;;;;;;;6.65;1.65;;;9.10;99.90;;;;;;5065078;28;20033;-49
2024/01/30 11:07:24;;;;;;;4.90;1.35;;;9.10;99.90;;;;;;5064657;28;20060;-50
2024/01/30 11:10:03;;;;;;;9.35;1.55;;;9.00;99.90;;;;;;5065317;28;20057;-50
2024/01/30 11:12:30;;;;;;;6.45;1.60;;;8.90;99.90;;;;;;5065154;28;20017;-46
2024/01/30 11:15:11;;;;;;;6.75;1.90;;;9.00;99.90;;;;;;5063819;28;20032;-50
2024/01/30 11:17:49;;;;;;;11.05;2.05;;;8.90;99.90;;;;;;5064633;28;20045;-48
2024/01/30 11:20:39;;;;;;;7.15;1.88;;;8.90;99.90;;;;;;5064886;28;20082;-48
2024/01/30 11:23:07;;;;;;;;;;;8.90;99.90;;;;;;5065310;28;20041;-49
2024/01/30 11:25:34;;;;;;;7.05;1.90;;;8.90;99.90;;;;;;5064711;28;19917;-48
2024/01/30 11:28:00;;;;;;;6.68;1.50;;;8.90;99.90;;;;;;5063585;28;20096;-50
2024/01/30 11:30:27;;;;;;;7.60;1.48;;;9.00;99.90;;;;;;5063222;28;20021;-49
2024/01/30 11:33:06;;;;;;;7.00;1.70;;;9.00;99.90;;;;;;5063453;28;20099;-48
2024/01/30 11:35:44;;;;;;;9.25;1.85;;;9.10;99.90;;;;;;5064254;28;20033;-49
2024/01/30 11:38:11;;;;;;;11.93;2.85;;;9.40;99.90;;;;;;5063259;28;20242;-50
2024/01/30 11:40:38;;;;;;;5.63;1.90;;;9.50;99.90;;;;;;5064650;28;20044;-46
2024/01/30 11:43:04;;;;;;;8.52;2.53;;;9.70;99.90;;;;;;5066815;28;20040;-49
2024/01/30 11:45:31;;;;;;;3.97;1.48;;;9.60;99.90;;;;;;5068137;28;20017;-50
2024/01/30 11:47:57;;;;;;;6.32;2.08;;;9.50;99.90;;;;;;5067799;28;20029;-50
2024/01/30 11:50:22;;;;;;;7.50;2.10;;;9.70;99.90;;;;;;5068019;28;20190;-49
2024/01/30 11:52:48;;;;;;;23.65;7.22;;;10.00;99.90;;;;;;5066936;28;20078;-50
2024/01/30 11:55:17;;;;;;;14.43;5.15;;;10.10;99.90;;;;;;5050544;28;20037;-49
2024/01/30 11:57:44;;;;;;;5.55;1.70;;;10.30;99.90;;;;;;5067741;28;20271;-48
2024/01/30 12:00:17;;;;;;;9.93;2.55;;;10.40;99.90;;;;;;5067804;28;20017;-52
2024/01/30 12:02:43;;;;;;;3.85;1.33;;;10.50;99.90;;;;;;5067692;28;20025;-47
2024/01/30 12:05:09;;;;;;;9.57;2.13;;;10.50;99.90;;;;;;5067722;28;20029;-48
2024/01/30 12:07:34;;;;;;;6.10;2.00;;;11.60;99.90;;;;;;5066660;28;20029;-47
2024/01/30 12:10:00;;;;;;;4.18;1.17;;;14.00;99.90;;;;;;5066947;28;20139;-50
2024/01/30 12:12:27;;;;;;;11.38;2.60;;;14.60;99.90;;;;;;5067883;28;20282;-47
2024/01/30 12:14:53;;;;;;;6.57;1.95;;;14.20;99.90;;;;;;5067844;28;20059;-47
2024/01/30 12:17:29;;;;;;;4.40;1.45;;;15.10;99.90;;;;;;5066408;28;20040;-50
2024/01/30 12:20:15;;;;;;;3.42;1.20;;;16.80;99.90;;;;;;5067098;28;20032;-50
2024/01/30 12:22:44;;;;;;;9.07;1.60;;;16.20;99.90;;;;;;5067743;28;20047;-49
2024/01/30 12:25:11;;;;;;;7.53;1.50;;;15.10;99.90;;;;;;5067311;28;20084;-50
2024/01/30 12:27:37;;;;;;;5.43;1.58;;;15.80;99.90;;;;;;5067207;28;20120;-47
2024/01/30 12:30:09;;;;;;;5.53;1.50;;;15.50;99.90;;;;;;5067418;28;20075;-50
2024/01/30 12:32:36;;;;;;;7.03;2.05;;;14.70;99.90;;;;;;5067338;28;20066;-50
2024/01/30 12:35:02;;;;;;;3.65;1.55;;;16.30;99.90;;;;;;5067554;28;20025;-50
2024/01/30 12:37:29;;;;;;;8.10;5.32;;;15.80;99.90;;;;;;5067509;28;20100;-49
2024/01/30 12:39:55;;;;;;;4.88;1.50;;;15.00;99.90;;;;;;5066119;28;20078;-46
2024/01/30 12:42:23;;;;;;;4.75;1.05;;;15.90;99.90;;;;;;5066758;28;20061;-49
2024/01/30 12:44:49;;;;;;;5.57;1.83;;;15.60;99.90;;;;;;5066115;28;20063;-47
2024/01/30 12:47:17;;;;;;;6.97;1.33;;;14.60;99.90;;;;;;5065810;28;20029;-49
2024/01/30 12:49:44;;;;;;;7.18;1.55;;;13.70;99.90;;;;;;5066853;28;20029;-48
2024/01/30 12:52:11;;;;;;;6.20;1.38;;;13.20;99.90;;;;;;5066636;28;20195;-47